createdAt,value
2018-07-26T00:00:21.000Z,40
2018-07-26T00:01:21.000Z,40
2018-07-26T00:02:21.000Z,40
2018-07-26T00:03:21.000Z,40
2018-07-26T00:04:21.000Z,40
2018-07-26T00:05:21.000Z,40
2018-07-26T00:06:21.000Z,40
2018-07-26T00:07:21.000Z,40
2018-07-26T00:08:21.000Z,40
2018-07-26T00:09:21.000Z,41
2018-07-26T00:10:21.000Z,41
2018-07-26T00:11:21.000Z,41
2018-07-26T00:12:21.000Z,41
2018-07-26T00:13:21.000Z,41
2018-07-26T00:14:21.000Z,41
2018-07-26T00:15:21.000Z,41
2018-07-26T00:16:21.000Z,41
2018-07-26T00:18:21.000Z,41
2018-07-26T00:19:21.000Z,41
2018-07-26T00:20:21.000Z,41
2018-07-26T00:21:21.000Z,41
2018-07-26T00:22:21.000Z,41
2018-07-26T00:23:21.000Z,41
2018-07-26T00:24:21.000Z,41
2018-07-26T00:25:21.000Z,41
2018-07-26T00:26:21.000Z,41
2018-07-26T00:28:21.000Z,41
2018-07-26T00:29:21.000Z,41
2018-07-26T00:30:21.000Z,41
2018-07-26T00:31:21.000Z,41
2018-07-26T00:32:21.000Z,41
2018-07-26T00:33:21.000Z,41
2018-07-26T00:34:21.000Z,41
2018-07-26T00:35:21.000Z,41
2018-07-26T00:36:21.000Z,41
2018-07-26T00:38:21.000Z,41
2018-07-26T00:39:21.000Z,42
2018-07-26T00:40:21.000Z,42
2018-07-26T00:41:21.000Z,42
2018-07-26T00:42:21.000Z,42
2018-07-26T00:44:21.000Z,41
2018-07-26T00:45:21.000Z,42
2018-07-26T00:46:21.000Z,42
2018-07-26T00:47:21.000Z,42
2018-07-26T00:48:21.000Z,42
2018-07-26T00:49:21.000Z,41
2018-07-26T00:51:21.000Z,41
2018-07-26T00:52:21.000Z,42
2018-07-26T00:53:21.000Z,42
2018-07-26T00:54:21.000Z,42
2018-07-26T00:55:21.000Z,42
2018-07-26T00:57:21.000Z,42
2018-07-26T00:58:21.000Z,42
2018-07-26T00:59:21.000Z,42
2018-07-26T01:00:21.000Z,42
2018-07-26T01:01:21.000Z,42
2018-07-26T01:02:21.000Z,42
2018-07-26T01:03:21.000Z,42
2018-07-26T01:04:21.000Z,42
2018-07-26T01:06:21.000Z,42
2018-07-26T01:07:21.000Z,42
2018-07-26T01:08:21.000Z,42
2018-07-26T01:09:21.000Z,42
2018-07-26T01:10:21.000Z,42
2018-07-26T01:11:21.000Z,42
2018-07-26T01:12:21.000Z,42
2018-07-26T01:13:21.000Z,42
2018-07-26T01:14:21.000Z,42
2018-07-26T01:16:21.000Z,42
2018-07-26T01:17:21.000Z,42
2018-07-26T01:18:21.000Z,42
2018-07-26T01:19:21.000Z,42
2018-07-26T01:20:21.000Z,42
2018-07-26T01:21:21.000Z,42
2018-07-26T01:22:21.000Z,42
2018-07-26T01:23:21.000Z,42
2018-07-26T01:25:21.000Z,42
2018-07-26T01:26:21.000Z,42
2018-07-26T01:27:21.000Z,42
2018-07-26T01:28:21.000Z,42
2018-07-26T01:29:21.000Z,42
2018-07-26T01:30:21.000Z,42
2018-07-26T01:31:21.000Z,42
2018-07-26T01:33:21.000Z,42
2018-07-26T01:34:21.000Z,42
2018-07-26T01:35:21.000Z,42
2018-07-26T01:36:21.000Z,42
2018-07-26T01:37:21.000Z,42
2018-07-26T01:38:21.000Z,42
2018-07-26T01:39:21.000Z,42
2018-07-26T01:41:21.000Z,42
2018-07-26T01:42:21.000Z,42
2018-07-26T01:43:21.000Z,42
2018-07-26T01:44:21.000Z,42
2018-07-26T01:45:21.000Z,42
2018-07-26T01:46:21.000Z,42
2018-07-26T01:47:21.000Z,42
2018-07-26T01:48:21.000Z,42
2018-07-26T01:49:21.000Z,42
2018-07-26T01:50:21.000Z,42
2018-07-26T01:51:21.000Z,42
2018-07-26T01:52:21.000Z,42
2018-07-26T01:53:21.000Z,42
2018-07-26T01:54:21.000Z,42
2018-07-26T01:55:21.000Z,43
2018-07-26T01:56:21.000Z,43
2018-07-26T01:57:21.000Z,42
2018-07-26T01:58:21.000Z,42
2018-07-26T01:59:21.000Z,42
2018-07-26T02:00:21.000Z,42
2018-07-26T02:01:21.000Z,42
2018-07-26T02:02:21.000Z,43
2018-07-26T02:04:21.000Z,42
2018-07-26T02:05:21.000Z,43
2018-07-26T02:07:21.000Z,42
2018-07-26T02:08:21.000Z,43
2018-07-26T02:09:21.000Z,43
2018-07-26T02:10:21.000Z,43
2018-07-26T02:11:21.000Z,42
2018-07-26T02:12:21.000Z,43
2018-07-26T02:14:21.000Z,42
2018-07-26T02:15:21.000Z,43
2018-07-26T02:16:21.000Z,43
2018-07-26T02:17:21.000Z,43
2018-07-26T02:18:21.000Z,43
2018-07-26T02:19:21.000Z,43
2018-07-26T02:20:21.000Z,43
2018-07-26T02:21:21.000Z,43
2018-07-26T02:22:21.000Z,43
2018-07-26T02:23:21.000Z,43
2018-07-26T02:24:21.000Z,43
2018-07-26T02:25:21.000Z,43
2018-07-26T02:27:21.000Z,43
2018-07-26T02:28:21.000Z,43
2018-07-26T02:29:21.000Z,43
2018-07-26T02:30:21.000Z,43
2018-07-26T02:32:21.000Z,43
2018-07-26T02:33:21.000Z,43
2018-07-26T02:34:21.000Z,43
2018-07-26T02:35:21.000Z,43
2018-07-26T02:36:21.000Z,43
2018-07-26T02:38:21.000Z,43
2018-07-26T02:39:21.000Z,43
2018-07-26T02:40:21.000Z,43
2018-07-26T02:41:21.000Z,43
2018-07-26T02:42:21.000Z,43
2018-07-26T02:43:21.000Z,43
2018-07-26T02:44:21.000Z,43
2018-07-26T02:45:21.000Z,43
2018-07-26T02:46:21.000Z,43
2018-07-26T02:47:21.000Z,43
2018-07-26T02:48:21.000Z,43
2018-07-26T02:49:21.000Z,43
2018-07-26T02:50:21.000Z,43
2018-07-26T02:52:21.000Z,43
2018-07-26T02:53:21.000Z,43
2018-07-26T02:54:21.000Z,43
2018-07-26T02:55:21.000Z,43
2018-07-26T02:56:21.000Z,43
2018-07-26T02:57:21.000Z,43
2018-07-26T02:59:21.000Z,43
2018-07-26T03:01:21.000Z,43
2018-07-26T03:02:21.000Z,43
2018-07-26T03:03:21.000Z,43
2018-07-26T03:04:21.000Z,44
2018-07-26T03:05:21.000Z,44
2018-07-26T03:06:21.000Z,43
2018-07-26T03:08:21.000Z,43
2018-07-26T03:09:21.000Z,44
2018-07-26T03:10:21.000Z,44
2018-07-26T03:11:21.000Z,44
2018-07-26T03:12:21.000Z,44
2018-07-26T03:13:21.000Z,44
2018-07-26T03:14:21.000Z,44
2018-07-26T03:15:21.000Z,44
2018-07-26T03:17:21.000Z,44
2018-07-26T03:18:21.000Z,44
2018-07-26T03:19:21.000Z,44
2018-07-26T03:20:21.000Z,43
2018-07-26T03:21:21.000Z,44
2018-07-26T03:22:21.000Z,43
2018-07-26T03:23:21.000Z,44
2018-07-26T03:24:21.000Z,44
2018-07-26T03:25:21.000Z,43
2018-07-26T03:26:21.000Z,44
2018-07-26T03:27:21.000Z,43
2018-07-26T03:28:21.000Z,44
2018-07-26T03:29:21.000Z,44
2018-07-26T03:30:21.000Z,43
2018-07-26T03:32:21.000Z,43
2018-07-26T03:33:21.000Z,44
2018-07-26T03:34:21.000Z,43
2018-07-26T03:36:21.000Z,44
2018-07-26T03:37:20.000Z,44
2018-07-26T03:38:20.000Z,44
2018-07-26T03:39:20.000Z,44
2018-07-26T03:40:20.000Z,44
2018-07-26T03:41:20.000Z,44
2018-07-26T03:43:20.000Z,44
2018-07-26T03:44:20.000Z,44
2018-07-26T03:45:20.000Z,44
2018-07-26T03:46:20.000Z,44
2018-07-26T03:47:20.000Z,44
2018-07-26T03:48:20.000Z,44
2018-07-26T03:49:20.000Z,44
2018-07-26T03:50:20.000Z,44
2018-07-26T03:51:20.000Z,44
2018-07-26T03:52:20.000Z,44
2018-07-26T03:54:20.000Z,44
2018-07-26T03:55:20.000Z,44
2018-07-26T03:56:20.000Z,44
2018-07-26T03:57:20.000Z,44
2018-07-26T03:58:20.000Z,44
2018-07-26T03:59:20.000Z,44
2018-07-26T04:00:20.000Z,44
2018-07-26T04:01:26.000Z,44
2018-07-26T04:02:26.000Z,44
2018-07-26T04:03:26.000Z,44
2018-07-26T04:04:26.000Z,44
2018-07-26T04:05:26.000Z,44
2018-07-26T04:07:26.000Z,44
2018-07-26T04:09:26.000Z,44
2018-07-26T04:10:26.000Z,44
2018-07-26T04:11:26.000Z,44
2018-07-26T04:12:26.000Z,44
2018-07-26T04:13:26.000Z,44
2018-07-26T04:15:26.000Z,44
2018-07-26T04:16:26.000Z,44
2018-07-26T04:17:26.000Z,44
2018-07-26T04:18:26.000Z,44
2018-07-26T04:20:26.000Z,43
2018-07-26T04:21:26.000Z,44
2018-07-26T04:22:26.000Z,43
2018-07-26T04:23:26.000Z,44
2018-07-26T04:24:26.000Z,44
2018-07-26T04:25:26.000Z,45
2018-07-26T04:26:26.000Z,45
2018-07-26T04:27:26.000Z,45
2018-07-26T04:28:26.000Z,45
2018-07-26T04:29:26.000Z,46
2018-07-26T04:30:26.000Z,46
2018-07-26T04:32:26.000Z,47
2018-07-26T04:33:26.000Z,47
2018-07-26T04:34:26.000Z,48
2018-07-26T04:35:26.000Z,48
2018-07-26T04:36:26.000Z,48
2018-07-26T04:37:26.000Z,49
2018-07-26T04:38:26.000Z,49
2018-07-26T04:39:26.000Z,49
2018-07-26T04:40:26.000Z,50
2018-07-26T04:41:26.000Z,50
2018-07-26T04:42:26.000Z,50
2018-07-26T04:43:26.000Z,51
2018-07-26T04:44:26.000Z,51
2018-07-26T04:45:26.000Z,51
2018-07-26T04:46:26.000Z,51
2018-07-26T04:47:26.000Z,51
2018-07-26T04:48:26.000Z,51
2018-07-26T04:49:26.000Z,52
2018-07-26T04:50:26.000Z,52
2018-07-26T04:51:26.000Z,52
2018-07-26T04:52:26.000Z,52
2018-07-26T04:54:26.000Z,52
2018-07-26T04:55:26.000Z,52
2018-07-26T04:56:26.000Z,52
2018-07-26T04:57:26.000Z,53
2018-07-26T04:58:26.000Z,53
2018-07-26T04:59:26.000Z,53
2018-07-26T05:01:26.000Z,53
2018-07-26T05:02:26.000Z,53
2018-07-26T05:03:26.000Z,53
2018-07-26T05:05:26.000Z,53
2018-07-26T05:06:26.000Z,53
2018-07-26T05:07:26.000Z,53
2018-07-26T05:08:26.000Z,53
2018-07-26T05:09:26.000Z,53
2018-07-26T05:11:26.000Z,52
2018-07-26T05:12:26.000Z,53
2018-07-26T05:13:26.000Z,53
2018-07-26T05:14:26.000Z,52
2018-07-26T05:15:26.000Z,52
2018-07-26T05:16:26.000Z,52
2018-07-26T05:17:26.000Z,52
2018-07-26T05:18:26.000Z,52
2018-07-26T05:19:26.000Z,52
2018-07-26T05:20:26.000Z,51
2018-07-26T05:21:26.000Z,51
2018-07-26T05:22:26.000Z,51
2018-07-26T05:23:26.000Z,51
2018-07-26T05:24:26.000Z,51
2018-07-26T05:25:26.000Z,52
2018-07-26T05:26:26.000Z,51
2018-07-26T05:27:26.000Z,52
2018-07-26T05:28:26.000Z,52
2018-07-26T05:29:26.000Z,52
2018-07-26T05:30:26.000Z,52
2018-07-26T05:31:26.000Z,52
2018-07-26T05:32:26.000Z,52
2018-07-26T05:33:26.000Z,52
2018-07-26T05:34:26.000Z,52
2018-07-26T05:35:26.000Z,52
2018-07-26T05:36:26.000Z,52
2018-07-26T05:37:26.000Z,52
2018-07-26T05:38:26.000Z,53
2018-07-26T05:39:26.000Z,53
2018-07-26T05:41:26.000Z,52
2018-07-26T05:42:26.000Z,52
2018-07-26T05:43:26.000Z,52
2018-07-26T05:44:27.000Z,52
2018-07-26T05:45:27.000Z,52
2018-07-26T05:46:27.000Z,52
2018-07-26T05:48:27.000Z,52
2018-07-26T05:49:27.000Z,52
2018-07-26T05:50:27.000Z,52
2018-07-26T05:51:27.000Z,52
2018-07-26T05:53:27.000Z,52
2018-07-26T05:54:27.000Z,52
2018-07-26T05:55:27.000Z,52
2018-07-26T05:56:27.000Z,52
2018-07-26T05:57:27.000Z,52
2018-07-26T05:58:27.000Z,52
2018-07-26T05:59:27.000Z,52
2018-07-26T06:01:27.000Z,51
2018-07-26T06:02:27.000Z,52
2018-07-26T06:03:27.000Z,51
2018-07-26T06:05:27.000Z,51
2018-07-26T06:06:27.000Z,52
2018-07-26T06:07:27.000Z,51
2018-07-26T06:08:27.000Z,51
2018-07-26T06:09:27.000Z,51
2018-07-26T06:10:27.000Z,50
2018-07-26T06:11:27.000Z,50
2018-07-26T06:12:27.000Z,50
2018-07-26T06:14:27.000Z,50
2018-07-26T06:15:27.000Z,50
2018-07-26T06:16:27.000Z,50
2018-07-26T06:17:27.000Z,50
2018-07-26T06:19:27.000Z,49
2018-07-26T06:20:27.000Z,49
2018-07-26T06:21:27.000Z,49
2018-07-26T06:22:27.000Z,49
2018-07-26T06:23:27.000Z,48
2018-07-26T06:25:27.000Z,48
2018-07-26T06:26:27.000Z,48
2018-07-26T06:27:27.000Z,48
2018-07-26T06:28:27.000Z,48
2018-07-26T06:30:27.000Z,48
2018-07-26T06:31:27.000Z,48
2018-07-26T06:32:27.000Z,48
2018-07-26T06:33:27.000Z,48
2018-07-26T06:35:27.000Z,48
2018-07-26T06:36:27.000Z,48
2018-07-26T06:38:27.000Z,48
2018-07-26T06:39:27.000Z,48
2018-07-26T06:40:27.000Z,48
2018-07-26T06:41:27.000Z,48
2018-07-26T06:42:27.000Z,48
2018-07-26T06:43:27.000Z,48
2018-07-26T06:44:27.000Z,48
2018-07-26T06:45:27.000Z,48
2018-07-26T06:46:27.000Z,48
2018-07-26T06:47:27.000Z,49
2018-07-26T06:48:27.000Z,48
2018-07-26T06:49:27.000Z,48
2018-07-26T06:50:27.000Z,48
2018-07-26T06:54:13.000Z,49
2018-07-26T06:55:13.000Z,49
2018-07-26T06:56:13.000Z,49
2018-07-26T06:57:13.000Z,49
2018-07-26T06:58:13.000Z,49
2018-07-26T07:00:13.000Z,48
2018-07-26T07:01:13.000Z,48
2018-07-26T07:03:13.000Z,47
2018-07-26T07:04:13.000Z,47
2018-07-26T07:05:13.000Z,46
2018-07-26T07:06:13.000Z,47
2018-07-26T07:07:13.000Z,46
2018-07-26T07:08:13.000Z,46
2018-07-26T07:10:13.000Z,46
2018-07-26T07:11:13.000Z,46
2018-07-26T07:12:13.000Z,46
2018-07-26T07:14:13.000Z,45
2018-07-26T07:15:13.000Z,45
2018-07-26T07:16:13.000Z,45
2018-07-26T07:17:13.000Z,45
2018-07-26T07:18:13.000Z,45
2018-07-26T07:19:13.000Z,45
2018-07-26T07:20:13.000Z,45
2018-07-26T07:22:13.000Z,44
2018-07-26T07:23:13.000Z,45
2018-07-26T07:24:13.000Z,44
2018-07-26T07:26:13.000Z,44
2018-07-26T07:27:13.000Z,45
2018-07-26T07:28:13.000Z,45
2018-07-26T07:29:13.000Z,45
2018-07-26T07:30:13.000Z,44
2018-07-26T07:31:13.000Z,44
2018-07-26T07:32:13.000Z,44
2018-07-26T07:33:13.000Z,44
2018-07-26T07:34:13.000Z,44
2018-07-26T07:35:13.000Z,44
2018-07-26T07:36:13.000Z,44
2018-07-26T07:37:13.000Z,43
2018-07-26T07:38:13.000Z,43
2018-07-26T07:39:13.000Z,43
2018-07-26T07:40:13.000Z,43
2018-07-26T07:41:13.000Z,43
2018-07-26T07:42:13.000Z,43
2018-07-26T07:44:13.000Z,42
2018-07-26T07:45:13.000Z,42
2018-07-26T07:46:13.000Z,42
2018-07-26T07:47:13.000Z,42
2018-07-26T07:48:13.000Z,42
2018-07-26T07:50:13.000Z,42
2018-07-26T07:52:13.000Z,42
2018-07-26T07:53:13.000Z,42
2018-07-26T07:54:13.000Z,42
2018-07-26T07:55:13.000Z,42
2018-07-26T07:56:13.000Z,42
2018-07-26T07:57:13.000Z,42
2018-07-26T07:58:13.000Z,42
2018-07-26T07:59:13.000Z,41
2018-07-26T08:01:13.000Z,41
2018-07-26T08:02:13.000Z,41
2018-07-26T08:04:13.000Z,41
2018-07-26T08:05:13.000Z,41
2018-07-26T08:06:13.000Z,41
2018-07-26T08:07:13.000Z,40
2018-07-26T08:08:13.000Z,40
2018-07-26T08:10:13.000Z,40
2018-07-26T08:11:13.000Z,40
2018-07-26T08:12:13.000Z,40
2018-07-26T08:13:13.000Z,40
2018-07-26T08:15:13.000Z,40
2018-07-26T08:17:13.000Z,39
2018-07-26T08:18:13.000Z,39
2018-07-26T08:19:13.000Z,39
2018-07-26T08:20:13.000Z,39
2018-07-26T08:21:13.000Z,39
2018-07-26T08:22:13.000Z,39
2018-07-26T08:23:13.000Z,39
2018-07-26T08:24:13.000Z,39
2018-07-26T08:25:13.000Z,38
2018-07-26T08:26:13.000Z,38
2018-07-26T08:27:13.000Z,38
2018-07-26T08:28:13.000Z,38
2018-07-26T08:29:13.000Z,38
2018-07-26T08:30:13.000Z,38
2018-07-26T08:31:13.000Z,38
2018-07-26T08:32:13.000Z,37
2018-07-26T08:33:13.000Z,37
2018-07-26T08:34:13.000Z,37
2018-07-26T08:35:13.000Z,37
2018-07-26T08:37:13.000Z,36
2018-07-26T08:38:13.000Z,36
2018-07-26T08:39:13.000Z,36
2018-07-26T08:40:13.000Z,36
2018-07-26T08:42:13.000Z,36
2018-07-26T08:43:13.000Z,36
2018-07-26T08:44:13.000Z,36
2018-07-26T08:45:13.000Z,36
2018-07-26T08:47:13.000Z,36
2018-07-26T08:48:13.000Z,36
2018-07-26T08:49:13.000Z,36
2018-07-26T08:51:13.000Z,35
2018-07-26T08:52:13.000Z,35
2018-07-26T08:53:13.000Z,35
2018-07-26T08:55:13.000Z,35
2018-07-26T08:56:13.000Z,35
2018-07-26T08:57:13.000Z,35
2018-07-26T08:58:13.000Z,36
2018-07-26T08:59:13.000Z,35
2018-07-26T09:00:13.000Z,35
2018-07-26T09:01:13.000Z,36
2018-07-26T09:02:13.000Z,36
2018-07-26T09:04:13.000Z,35
2018-07-26T09:05:13.000Z,35
2018-07-26T09:06:13.000Z,35
2018-07-26T09:07:13.000Z,35
2018-07-26T09:09:13.000Z,35
2018-07-26T09:10:13.000Z,35
2018-07-26T09:11:13.000Z,35
2018-07-26T09:12:13.000Z,35
2018-07-26T09:13:13.000Z,35
2018-07-26T09:14:13.000Z,35
2018-07-26T09:16:13.000Z,35
2018-07-26T09:17:13.000Z,35
2018-07-26T09:19:13.000Z,35
2018-07-26T09:20:13.000Z,35
2018-07-26T09:21:13.000Z,35
2018-07-26T09:22:13.000Z,35
2018-07-26T09:23:13.000Z,35
2018-07-26T09:24:13.000Z,35
2018-07-26T09:25:13.000Z,35
2018-07-26T09:27:13.000Z,35
2018-07-26T09:29:13.000Z,35
2018-07-26T09:30:13.000Z,36
2018-07-26T09:31:13.000Z,36
2018-07-26T09:33:13.000Z,36
2018-07-26T09:34:13.000Z,36
2018-07-26T09:35:13.000Z,36
2018-07-26T09:36:13.000Z,36
2018-07-26T09:37:13.000Z,36
2018-07-26T09:38:13.000Z,36
2018-07-26T09:39:13.000Z,35
2018-07-26T09:40:13.000Z,35
2018-07-26T09:41:13.000Z,35
2018-07-26T09:43:13.000Z,35
2018-07-26T09:44:13.000Z,35
2018-07-26T09:45:13.000Z,35
2018-07-26T09:47:13.000Z,35
2018-07-26T09:48:13.000Z,35
2018-07-26T09:50:13.000Z,35
2018-07-26T09:51:13.000Z,35
2018-07-26T09:52:13.000Z,35
2018-07-26T09:53:13.000Z,35
2018-07-26T09:54:13.000Z,35
2018-07-26T09:56:13.000Z,35
2018-07-26T09:58:13.000Z,35
2018-07-26T09:59:13.000Z,35
2018-07-26T10:00:13.000Z,35
2018-07-26T10:01:13.000Z,35
2018-07-26T10:02:13.000Z,35
2018-07-26T10:03:13.000Z,35
2018-07-26T10:04:13.000Z,35
2018-07-26T10:05:13.000Z,35
2018-07-26T10:06:13.000Z,35
2018-07-26T10:07:13.000Z,35
2018-07-26T10:08:13.000Z,35
2018-07-26T10:09:13.000Z,35
2018-07-26T10:10:13.000Z,35
2018-07-26T10:12:13.000Z,35
2018-07-26T10:13:13.000Z,35
2018-07-26T10:14:13.000Z,35
2018-07-26T10:15:13.000Z,34
2018-07-26T10:16:13.000Z,34
2018-07-26T10:18:13.000Z,34
2018-07-26T10:19:13.000Z,34
2018-07-26T10:20:13.000Z,34
2018-07-26T10:21:13.000Z,34
2018-07-26T10:22:13.000Z,34
2018-07-26T10:23:13.000Z,34
2018-07-26T10:24:13.000Z,34
2018-07-26T10:25:13.000Z,34
2018-07-26T10:26:13.000Z,34
2018-07-26T10:28:13.000Z,34
2018-07-26T10:29:13.000Z,34
2018-07-26T10:30:13.000Z,34
2018-07-26T10:32:13.000Z,34
2018-07-26T10:33:13.000Z,34
2018-07-26T10:34:13.000Z,34
2018-07-26T10:36:13.000Z,34
2018-07-26T10:37:13.000Z,34
2018-07-26T10:38:13.000Z,34
2018-07-26T10:40:13.000Z,34
2018-07-26T10:41:13.000Z,34
2018-07-26T10:42:13.000Z,34
2018-07-26T10:43:13.000Z,34
2018-07-26T10:44:13.000Z,33
2018-07-26T10:45:13.000Z,34
2018-07-26T10:47:13.000Z,33
2018-07-26T10:48:13.000Z,33
2018-07-26T10:49:13.000Z,33
2018-07-26T10:50:13.000Z,33
2018-07-26T10:51:13.000Z,33
2018-07-26T10:52:13.000Z,33
2018-07-26T10:54:13.000Z,33
2018-07-26T10:55:13.000Z,33
2018-07-26T10:57:13.000Z,33
2018-07-26T10:58:13.000Z,33
2018-07-26T10:59:13.000Z,33
2018-07-26T11:00:13.000Z,33
2018-07-26T11:01:13.000Z,33
2018-07-26T11:02:13.000Z,33
2018-07-26T11:03:13.000Z,33
2018-07-26T11:04:13.000Z,33
2018-07-26T11:05:13.000Z,33
2018-07-26T11:06:13.000Z,33
2018-07-26T11:07:13.000Z,33
2018-07-26T11:08:13.000Z,33
2018-07-26T11:09:13.000Z,33
2018-07-26T11:10:13.000Z,33
2018-07-26T11:11:13.000Z,33
2018-07-26T11:13:13.000Z,33
2018-07-26T11:14:13.000Z,33
2018-07-26T11:15:13.000Z,33
2018-07-26T11:16:13.000Z,33
2018-07-26T11:17:13.000Z,33
2018-07-26T11:18:13.000Z,33
2018-07-26T11:20:13.000Z,33
2018-07-26T11:21:13.000Z,33
2018-07-26T11:22:13.000Z,33
2018-07-26T11:23:13.000Z,33
2018-07-26T11:24:13.000Z,33
2018-07-26T11:26:13.000Z,33
2018-07-26T11:27:13.000Z,33
2018-07-26T11:28:13.000Z,33
2018-07-26T11:29:13.000Z,33
2018-07-26T11:30:13.000Z,33
2018-07-26T11:31:13.000Z,33
2018-07-26T11:32:13.000Z,33
2018-07-26T11:33:13.000Z,33
2018-07-26T11:34:13.000Z,33
2018-07-26T11:36:13.000Z,33
2018-07-26T11:37:13.000Z,33
2018-07-26T11:38:13.000Z,33
2018-07-26T11:39:13.000Z,33
2018-07-26T11:40:13.000Z,33
2018-07-26T11:42:13.000Z,32
2018-07-26T11:43:13.000Z,33
2018-07-26T11:44:13.000Z,33
2018-07-26T11:45:13.000Z,32
2018-07-26T11:46:13.000Z,32
2018-07-26T11:47:13.000Z,32
2018-07-26T11:48:13.000Z,32
2018-07-26T11:49:13.000Z,32
2018-07-26T11:51:13.000Z,32
2018-07-26T11:52:13.000Z,32
2018-07-26T11:53:13.000Z,32
2018-07-26T11:54:13.000Z,32
2018-07-26T11:55:13.000Z,32
2018-07-26T11:56:13.000Z,32
2018-07-26T11:57:13.000Z,32
2018-07-26T11:58:13.000Z,32
2018-07-26T11:59:13.000Z,32
2018-07-26T12:01:13.000Z,32
2018-07-26T12:02:13.000Z,32
2018-07-26T12:04:13.000Z,32
2018-07-26T12:05:13.000Z,32
2018-07-26T12:06:13.000Z,32
2018-07-26T12:07:13.000Z,32
2018-07-26T12:08:13.000Z,32
2018-07-26T12:09:13.000Z,32
2018-07-26T12:10:13.000Z,32
2018-07-26T12:11:13.000Z,32
2018-07-26T12:13:13.000Z,32
2018-07-26T12:14:13.000Z,32
2018-07-26T12:15:13.000Z,32
2018-07-26T12:16:13.000Z,32
2018-07-26T12:17:13.000Z,32
2018-07-26T12:19:13.000Z,32
2018-07-26T12:20:13.000Z,32
2018-07-26T12:21:13.000Z,32
2018-07-26T12:22:13.000Z,32
2018-07-26T12:23:13.000Z,32
2018-07-26T12:24:13.000Z,32
2018-07-26T12:25:13.000Z,32
2018-07-26T12:26:13.000Z,32
2018-07-26T12:27:13.000Z,32
2018-07-26T12:28:13.000Z,32
2018-07-26T12:29:13.000Z,32
2018-07-26T12:30:13.000Z,32
2018-07-26T12:31:13.000Z,32
2018-07-26T12:33:13.000Z,32
2018-07-26T12:34:13.000Z,32
2018-07-26T12:35:13.000Z,32
2018-07-26T12:36:13.000Z,32
2018-07-26T12:37:13.000Z,32
2018-07-26T12:38:13.000Z,32
2018-07-26T12:39:13.000Z,32
2018-07-26T12:40:13.000Z,32
2018-07-26T12:41:13.000Z,31
2018-07-26T12:42:13.000Z,31
2018-07-26T12:43:13.000Z,31
2018-07-26T12:44:13.000Z,31
2018-07-26T12:45:13.000Z,31
2018-07-26T12:46:13.000Z,31
2018-07-26T12:47:13.000Z,31
2018-07-26T12:48:13.000Z,31
2018-07-26T12:49:13.000Z,31
2018-07-26T12:50:13.000Z,32
2018-07-26T12:52:13.000Z,31
2018-07-26T12:53:13.000Z,32
2018-07-26T12:54:13.000Z,31
2018-07-26T12:55:13.000Z,32
2018-07-26T12:56:13.000Z,31
2018-07-26T12:57:13.000Z,32
2018-07-26T12:58:13.000Z,32
2018-07-26T12:59:13.000Z,32
2018-07-26T13:01:13.000Z,31
2018-07-26T13:02:13.000Z,32
2018-07-26T13:04:13.000Z,31
2018-07-26T13:05:13.000Z,32
2018-07-26T13:06:13.000Z,32
2018-07-26T13:07:13.000Z,32
2018-07-26T13:08:13.000Z,31
2018-07-26T13:09:13.000Z,31
2018-07-26T13:10:13.000Z,31
2018-07-26T13:11:13.000Z,31
2018-07-26T13:12:13.000Z,31
2018-07-26T13:13:13.000Z,31
2018-07-26T13:14:13.000Z,31
2018-07-26T13:15:13.000Z,31
2018-07-26T13:16:13.000Z,31
2018-07-26T13:18:13.000Z,31
2018-07-26T13:19:13.000Z,31
2018-07-26T13:20:13.000Z,31
2018-07-26T13:21:13.000Z,31
2018-07-26T13:22:13.000Z,31
2018-07-26T13:23:13.000Z,31
2018-07-26T13:24:13.000Z,31
2018-07-26T13:25:13.000Z,31
2018-07-26T13:26:13.000Z,31
2018-07-26T13:27:13.000Z,31
2018-07-26T13:29:13.000Z,31
2018-07-26T13:30:13.000Z,31
2018-07-26T13:31:13.000Z,31
2018-07-26T13:32:13.000Z,31
2018-07-26T13:33:13.000Z,31
2018-07-26T13:34:13.000Z,31
2018-07-26T13:36:13.000Z,31
2018-07-26T13:37:13.000Z,31
2018-07-26T13:38:13.000Z,31
2018-07-26T13:39:13.000Z,31
2018-07-26T13:40:13.000Z,31
2018-07-26T13:41:13.000Z,31
2018-07-26T13:42:13.000Z,31
2018-07-26T13:43:13.000Z,31
2018-07-26T13:44:13.000Z,31
2018-07-26T13:45:13.000Z,31
2018-07-26T13:46:13.000Z,31
2018-07-26T13:47:13.000Z,31
2018-07-26T13:49:13.000Z,31
2018-07-26T13:50:13.000Z,31
2018-07-26T13:52:13.000Z,31
2018-07-26T13:53:13.000Z,31
2018-07-26T13:55:13.000Z,31
2018-07-26T13:56:13.000Z,31
2018-07-26T13:57:13.000Z,31
2018-07-26T13:58:13.000Z,31
2018-07-26T13:59:13.000Z,31
2018-07-26T14:01:13.000Z,31
2018-07-26T14:02:13.000Z,31
2018-07-26T14:04:13.000Z,31
2018-07-26T14:05:13.000Z,31
2018-07-26T14:06:13.000Z,31
2018-07-26T14:07:13.000Z,31
2018-07-26T14:08:13.000Z,31
2018-07-26T14:09:13.000Z,31
2018-07-26T14:10:13.000Z,31
2018-07-26T14:11:13.000Z,31
2018-07-26T14:12:13.000Z,31
2018-07-26T14:13:13.000Z,31
2018-07-26T14:14:13.000Z,31
2018-07-26T14:15:13.000Z,31
2018-07-26T14:16:13.000Z,31
2018-07-26T14:17:13.000Z,32
2018-07-26T14:18:13.000Z,32
2018-07-26T14:19:13.000Z,32
2018-07-26T14:20:13.000Z,32
2018-07-26T14:21:13.000Z,32
2018-07-26T14:22:13.000Z,32
2018-07-26T14:23:13.000Z,32
2018-07-26T14:24:13.000Z,32
2018-07-26T14:25:13.000Z,32
2018-07-26T14:27:13.000Z,32
2018-07-26T14:28:13.000Z,32
2018-07-26T14:29:13.000Z,32
2018-07-26T14:30:13.000Z,32
2018-07-26T14:31:13.000Z,32
2018-07-26T14:32:13.000Z,33
2018-07-26T14:33:13.000Z,33
2018-07-26T14:35:13.000Z,33
2018-07-26T14:36:13.000Z,33
2018-07-26T14:37:13.000Z,33
2018-07-26T14:38:13.000Z,33
2018-07-26T14:40:13.000Z,33
2018-07-26T14:41:13.000Z,33
2018-07-26T14:42:13.000Z,34
2018-07-26T14:43:13.000Z,34
2018-07-26T14:44:13.000Z,34
2018-07-26T14:46:13.000Z,34
2018-07-26T14:47:13.000Z,34
2018-07-26T14:48:13.000Z,34
2018-07-26T14:49:13.000Z,34
2018-07-26T14:50:13.000Z,34
2018-07-26T14:51:13.000Z,34
2018-07-26T14:52:13.000Z,34
2018-07-26T14:54:13.000Z,34
2018-07-26T14:55:13.000Z,35
2018-07-26T14:56:13.000Z,35
2018-07-26T14:57:13.000Z,35
2018-07-26T14:58:13.000Z,35
2018-07-26T14:59:13.000Z,35
2018-07-26T15:00:13.000Z,35
2018-07-26T15:01:13.000Z,35
2018-07-26T15:02:13.000Z,35
2018-07-26T15:03:13.000Z,35
2018-07-26T15:04:13.000Z,35
2018-07-26T15:05:13.000Z,35
2018-07-26T15:06:13.000Z,35
2018-07-26T15:07:13.000Z,35
2018-07-26T15:09:13.000Z,35
2018-07-26T15:10:13.000Z,36
2018-07-26T15:11:13.000Z,36
2018-07-26T15:12:13.000Z,36
2018-07-26T15:13:13.000Z,36
2018-07-26T15:14:13.000Z,36
2018-07-26T15:16:13.000Z,36
2018-07-26T15:17:13.000Z,36
2018-07-26T15:18:13.000Z,36
2018-07-26T15:19:13.000Z,36
2018-07-26T15:20:13.000Z,36
2018-07-26T15:21:13.000Z,36
2018-07-26T15:22:13.000Z,37
2018-07-26T15:23:13.000Z,37
2018-07-26T15:24:13.000Z,36
2018-07-26T15:25:13.000Z,37
2018-07-26T15:26:13.000Z,36
2018-07-26T15:28:13.000Z,36
2018-07-26T15:29:13.000Z,37
2018-07-26T15:30:13.000Z,37
2018-07-26T15:31:13.000Z,37
2018-07-26T15:32:13.000Z,37
2018-07-26T15:33:13.000Z,37
2018-07-26T15:34:13.000Z,37
2018-07-26T15:35:13.000Z,37
2018-07-26T15:36:13.000Z,37
2018-07-26T15:37:13.000Z,36
2018-07-26T15:38:13.000Z,37
2018-07-26T15:39:13.000Z,36
2018-07-26T15:40:13.000Z,37
2018-07-26T15:41:13.000Z,36
2018-07-26T15:42:13.000Z,37
2018-07-26T15:43:13.000Z,37
2018-07-26T15:44:13.000Z,37
2018-07-26T15:45:13.000Z,37
2018-07-26T15:46:13.000Z,37
2018-07-26T15:47:13.000Z,37
2018-07-26T15:48:13.000Z,36
2018-07-26T15:50:13.000Z,36
2018-07-26T15:51:13.000Z,37
2018-07-26T15:53:13.000Z,36
2018-07-26T15:54:13.000Z,37
2018-07-26T15:55:13.000Z,37
2018-07-26T15:56:13.000Z,37
2018-07-26T15:57:13.000Z,37
2018-07-26T15:58:13.000Z,37
2018-07-26T16:00:13.000Z,36
2018-07-26T16:01:13.000Z,37
2018-07-26T16:02:13.000Z,36
2018-07-26T16:03:13.000Z,37
2018-07-26T16:04:13.000Z,36
2018-07-26T16:05:13.000Z,37
2018-07-26T16:07:13.000Z,37
2018-07-26T16:08:13.000Z,37
2018-07-26T16:10:13.000Z,37
2018-07-26T16:11:13.000Z,37
2018-07-26T16:12:13.000Z,37
2018-07-26T16:13:13.000Z,37
2018-07-26T16:14:13.000Z,37
2018-07-26T16:15:13.000Z,37
2018-07-26T16:16:13.000Z,36
2018-07-26T16:17:13.000Z,36
2018-07-26T16:18:13.000Z,36
2018-07-26T16:19:13.000Z,36